• Join FlightAware (Why Join?)
  • Login
  • US Flag 
07:12PM EST


 

Airport Tracker/Info


-or-


 

Live Flight TrackerFlight Track Log ✈ AAY894 ✈ 30-Jan-2014 ✈ KPIE - KIAG

Flight Track Log - Related Links

Times and Time Zones

All times are in EST time to prevent confusion due to time zone crossing. See the AAY894 flight status page for this flight to view local times or setup timezone preferences in your user account.

Time Position Orientation Groundspeed Altitude Reporting Facility
EST Latitude Longitude Course Direction KTS MPH feet Rate Location/Type
08:26AM 27.9333 -82.7000 North 160 184 1,100  Level Tampa TRACON
08:27AM 27.9500 -82.7000 360° North 176 203 2,000 1,620 Climbing Tampa TRACON
08:28AM 28.0167 -82.6667 24° Northeast 287 330 3,700 2,520 Climbing Tampa TRACON
08:30AM 28.1350 -82.6525 North 287 330 8,600 2,580 Climbing Jacksonville Center
08:31AM 28.2144 -82.6286 15° North 292 336 10,600 1,620 Climbing Jacksonville Center
08:32AM 28.6680 -82.6359 North  Level FlightAware Approximate
08:32AM 28.3144 -82.6261 North 319 367 11,900  Level Jacksonville Center
08:33AM 28.4250 -82.6211 North 358 412 14,100 2,160 Climbing Jacksonville Center
08:34AM 28.5378 -82.6256 358° North 387 445 16,300 1,860 Climbing Jacksonville Center
08:35AM 28.6589 -82.6181 North 417 480 17,900 1,500 Climbing Jacksonville Center
08:36AM 28.7819 -82.6131 North 430 495 19,400 1,620 Climbing Jacksonville Center
08:37AM 28.9133 -82.6056 North 446 513 21,200 1,740 Climbing Jacksonville Center
08:38AM 29.0492 -82.6053 360° North 467 537 22,900 1,380 Climbing Jacksonville Center
08:39AM 29.1869 -82.5953 North 481 554 24,000 1,320 Climbing Jacksonville Center
08:40AM 29.3289 -82.5925 North 493 567 25,600 960 Climbing Jacksonville Center
08:41AM 29.4708 -82.5872 North 498 573 26,000 180 Climbing Jacksonville Center
08:42AM 29.6147 -82.5819 North 505 581 26,000 300 Level Jacksonville Center
08:43AM 29.7608 -82.5767 North 510 587 26,600 1,320 Climbing Jacksonville Center
08:44AM 29.9175 -82.5714 North 515 593 28,700 1,980 Climbing Jacksonville Center
08:45AM 30.0553 -82.5711 360° North 503 579 30,600 1,140 Climbing Jacksonville Center
08:46AM 30.1972 -82.5658 North 498 573 31,000 180 Climbing Jacksonville Center
08:47AM 30.3369 -82.5628 North 490 564 31,000  Level Jacksonville Center
08:48AM 30.4769 -82.5550 North 500 575 31,000  Level Jacksonville Center
08:49AM 30.5917 -82.5572 359° North 500 575 31,000  Level Jacksonville Center
08:50AM 30.7464 -82.5444 North 500 575 31,000  Level Jacksonville Center
08:51AM 30.8903 -82.5439 360° North 500 575 31,000  Level Jacksonville Center
08:52AM 31.0322 -82.5314 North 500 575 31,000  Level Jacksonville Center
08:53AM 31.1700 -82.5308 360° North 500 575 31,000  Level Jacksonville Center
08:54AM 31.3119 -82.5206 North 495 570 31,000 -60 Level Jacksonville Center
08:55AM 31.4561 -82.5150 North 501 577 30,900  Descending Jacksonville Center
08:56AM 31.6000 -82.4997 North 506 582 31,000  Climbing Jacksonville Center
08:57AM 31.7442 -82.4772 North 512 589 30,900 120 Descending Jacksonville Center
08:58AM 31.9719 -82.4378 North 519 597 31,400 480 Climbing Atlanta Center
08:59AM 32.1181 -82.4203 North 519 597 32,100 780 Climbing Atlanta Center
09:00AM 32.2617 -82.3981 North 519 597 33,000 420 Climbing Atlanta Center
09:01AM 32.4094 -82.3708 North 524 603 33,000  Level Atlanta Center
09:02AM 32.5531 -82.3483 North 524 603 33,000  Level Atlanta Center
09:03AM 32.6947 -82.3258 North 524 603 33,000  Level Atlanta Center
09:04AM 32.8364 -82.3058 North 519 597 33,000  Level Atlanta Center
09:05AM 32.9800 -82.2781 North 519 597 33,000  Level Atlanta Center
09:06AM 33.1197 -82.2631 North 519 597 33,000  Level Atlanta Center
09:07AM 33.2611 -82.2303 11° North 519 597 33,000  Level Atlanta Center
09:08AM 33.4028 -82.2147 North 514 592 33,000  Level Atlanta Center
09:09AM 33.5444 -82.1894 North 514 592 33,000  Level Atlanta Center
09:10AM 33.6714 -82.1692 North 521 600 33,000  Level Atlanta Center
09:11AM 33.8172 -82.1411 North 521 600 33,000  Level Atlanta Center
09:12AM 33.9586 -82.1203 North 521 600 33,000  Level Atlanta Center
09:13AM 34.0981 -82.0947 North 516 594 33,000  Level Atlanta Center
09:14AM 34.2439 -82.0661 North 521 600 33,000  Level Atlanta Center
09:15AM 34.3856 -82.0478 North 516 594 33,000  Level Atlanta Center
09:16AM 34.5289 -82.0192 North 522 601 33,000  Level Atlanta Center
09:17AM 34.6747 -81.9956 North 522 601 33,000  Level Atlanta Center
09:18AM 34.8181 -81.9667 North 522 601 33,000  Level Atlanta Center
09:19AM 34.9597 -81.9453 North 522 601 33,000  Level Atlanta Center
09:20AM 35.1031 -81.9114 11° North 522 601 33,000  Level Atlanta Center
09:21AM 35.2400 -81.8697 14° North 522 601 33,000  Level Atlanta Center
09:22AM 35.3958 -81.8272 13° North 522 601 33,000  Level Atlanta Center
09:23AM 35.5389 -81.7853 13° North 522 601 33,000  Level Atlanta Center
09:24AM 35.6761 -81.7481 12° North 516 594 33,000  Level Atlanta Center
09:25AM 35.8150 -81.7033 15° North 511 588 33,000  Level Atlanta Center
09:26AM 35.9519 -81.6686 12° North 505 581 33,000  Level Atlanta Center
09:27AM 36.0886 -81.6233 15° North 505 581 33,000  Level Atlanta Center
09:28AM 36.2258 -81.5883 12° North 505 581 33,000  Level Atlanta Center
09:29AM 36.3603 -81.5456 14° North 505 581 33,000  Level Atlanta Center
09:31AM 36.5856 -81.4803 13° North 494 568 33,000  Level Indianapolis Center
09:32AM 36.7156 -81.4403 14° North 492 566 33,000  Level Indianapolis Center
09:33AM 36.8464 -81.4081 11° North 489 563 33,000  Level Indianapolis Center
09:34AM 36.9992 -81.3572 15° North 482 555 33,000  Level Indianapolis Center
09:35AM 37.1292 -81.3250 11° North 477 549 33,000  Level Indianapolis Center
09:36AM 37.2578 -81.2806 15° North 478 550 33,000  Level Indianapolis Center
09:37AM 37.3775 -81.2514 11° North 466 536 33,000  Level Indianapolis Center
09:38AM 37.5275 -81.1978 16° North 473 544 33,000  Level Indianapolis Center
09:39AM 37.6506 -81.1689 11° North 463 533 33,000  Level Indianapolis Center
09:40AM 37.7733 -81.1225 17° North 469 540 33,000  Level Indianapolis Center
09:41AM 37.8972 -81.0944 10° North 463 533 33,000  Level Indianapolis Center
09:42AM 38.0472 -81.0450 15° North 464 534 33,000  Level Indianapolis Center
09:43AM 38.1733 -81.0142 11° North 462 532 33,000 360 Level Indianapolis Center
09:44AM 38.2975 -80.9725 15° North 463 533 33,800 540 Climbing Indianapolis Center
09:45AM 38.4231 -80.9422 11° North 461 531 34,200 540 Climbing Indianapolis Center
09:46AM 38.5494 -80.9017 14° North 468 539 35,000 360 Climbing Indianapolis Center
09:47AM 38.6761 -80.8644 13° North 470 541 35,000  Level Indianapolis Center
09:48AM 38.8294 -80.8178 13° North 474 545 35,000  Level Indianapolis Center
09:49AM 38.9561 -80.7819 12° North 470 541 35,000  Level Indianapolis Center
09:50AM 39.0814 -80.7431 14° North 465 535 35,000  Level Indianapolis Center
09:51AM 39.2058 -80.7033 14° North 464 534 35,000  Level Indianapolis Center
09:52AM 39.3319 -80.6733 10° North 461 531 35,000  Level Indianapolis Center
09:53AM 39.4561 -80.6300 15° North 463 533 35,000 -60 Level Indianapolis Center
09:55AM 39.6064 -80.5881 12° North 459 528 34,900 -300 Descending Indianapolis Center
09:55AM 39.6753 -80.5642 15° North 462 532 34,500 -780 Descending Cleveland Center
09:56AM 39.7969 -80.5322 11° North 449 517 33,600 -780 Descending Cleveland Center
09:57AM 39.9200 -80.4914 14° North 451 519 33,000 -300 Descending Cleveland Center
09:58AM 40.0667 -80.4258 19° North 460 529 33,000  Level Cleveland Center
09:59AM 40.1878 -80.3775 17° North 457 526 33,000  Level Cleveland Center
10:00AM 40.3100 -80.3142 22° Northeast 464 534 33,000 -360 Level Cleveland Center
10:01AM 40.4242 -80.2686 17° North 465 535 32,300 -780 Descending Cleveland Center
10:02AM 40.5442 -80.2050 22° Northeast 465 535 31,400 -1,020 Descending Cleveland Center
10:03AM 40.6928 -80.1431 18° North 464 534 30,200 -1,080 Descending Cleveland Center
10:04AM 40.8139 -80.0797 22° Northeast 465 535 29,200 -600 Descending Cleveland Center
10:05AM 40.9292 -80.0344 17° North 464 534 29,000 -420 Descending Cleveland Center
10:06AM 41.0483 -79.9708 22° Northeast 463 533 28,400 -660 Descending Cleveland Center
10:08AM 41.1800 -79.9136 18° North 464 534 27,700 -720 Descending Cleveland Center
10:09AM 41.3008 -79.8500 22° Northeast 466 536 27,000 -720 Descending Cleveland Center
10:10AM 41.4239 -79.7931 19° North 467 537 26,300 -780 Descending Cleveland Center
10:11AM 41.5697 -79.7233 20° North 463 533 25,500 -660 Descending Cleveland Center
10:12AM 41.6917 -79.6642 20° North 465 535 25,000 -1,260 Descending Cleveland Center
10:13AM 41.8131 -79.6092 19° North 463 533 22,900 -2,460 Descending Cleveland Center
10:14AM 41.9278 -79.5461 22° Northeast 448 516 20,000 -2,700 Descending Cleveland Center
10:15AM 42.0431 -79.4967 18° North 433 498 17,400 -2,520 Descending Cleveland Center
10:16AM 42.1536 -79.4364 22° Northeast 430 495 14,900 -2,400 Descending Cleveland Center
10:17AM 42.2608 -79.3911 17° North 408 470 12,500 -1,920 Descending Cleveland Center
10:18AM 42.3767 -79.3292 22° Northeast 372 428 11,000 -780 Descending Cleveland Center
10:19AM 42.4664 -79.2883 19° North 354 407 11,000 -420 Level Cleveland Center
10:20AM 42.5486 -79.2119 34° Northeast 328 377 10,200 -1,260 Descending Cleveland Center
10:21AM 42.6211 -79.1519 31° Northeast 311 358 8,500 -1,500 Descending Cleveland Center
10:22AM 42.6928 -79.0814 36° Northeast 308 354 7,100 -780 Descending Cleveland Center
10:23AM 42.7700 -79.0308 26° Northeast 298 343 7,000 -480 Descending Cleveland Center
10:24AM 42.8506 -78.9819 24° Northeast 300 345 6,200 -900 Descending Cleveland Center
10:25AM 42.9225 -78.9369 25° Northeast 300 345 5,200 -600 Descending Cleveland Center
10:26AM 42.9833 -78.8667 40° Northeast 252 290 5,100 -120 Descending Buffalo TRACON
10:27AM 43.0167 -78.8167 48° Northeast 202 232 5,000 -180 Descending Buffalo TRACON
10:28AM 43.0500 -78.7500 56° Northeast 199 229 4,800 -600 Descending Buffalo TRACON
10:29AM 43.0667 -78.6667 75° East 215 247 3,900 -1,080 Descending Buffalo TRACON
10:30AM 43.1000 -78.6833 340° North 186 214 2,700 -840 Descending Buffalo TRACON
10:31AM 43.1167 -78.7500 289° West 130 150 2,300 -240 Descending Buffalo TRACON
10:32AM 43.1167 -78.8000 270° West 127 146 2,300 -240 Level Buffalo TRACON
10:33AM 43.1167 -78.8333 270° West 115 132 1,900 -540 Descending Buffalo TRACON
10:34AM 43.1167 -78.8833 270° West 120 138 1,300 -600 Descending Buffalo TRACON